createdAt,value
2023-03-17T00:04:25.488Z,70.33
2023-03-17T00:09:28.559Z,70.37
2023-03-17T00:14:32.852Z,71.00
2023-03-17T00:19:37.002Z,71.23
2023-03-17T00:24:39.920Z,71.08
2023-03-17T00:29:44.186Z,71.42
2023-03-17T00:34:47.785Z,72.04
2023-03-17T00:39:52.131Z,72.19
2023-03-17T00:44:56.408Z,71.01
2023-03-17T00:49:59.660Z,71.34
2023-03-17T00:55:02.567Z,71.47
2023-03-17T01:00:17.698Z,71.54
2023-03-17T01:05:21.799Z,69.56
2023-03-17T01:10:27.190Z,70.19
2023-03-17T01:15:32.632Z,70.21
2023-03-17T01:20:35.722Z,69.78
2023-03-17T01:25:40.065Z,69.96
2023-03-17T01:30:45.265Z,69.93
2023-03-17T01:35:48.255Z,68.70
2023-03-17T01:40:52.413Z,68.14
2023-03-17T01:46:29.702Z,68.46
2023-03-17T01:51:37.817Z,67.47
2023-03-17T01:56:44.438Z,67.29
2023-03-17T02:01:51.473Z,65.85
2023-03-17T02:06:58.407Z,66.22
2023-03-17T02:12:03.966Z,66.59
2023-03-17T02:17:09.881Z,66.60
2023-03-17T02:22:14.244Z,60.93
2023-03-17T02:27:24.943Z,59.31
2023-03-17T02:32:29.777Z,61.02
2023-03-17T02:37:34.562Z,59.70
2023-03-17T02:42:39.253Z,63.15
2023-03-17T02:47:43.279Z,62.85
2023-03-17T02:52:47.551Z,63.97
2023-03-17T02:57:50.421Z,61.06
2023-03-17T03:02:53.437Z,61.62
2023-03-17T03:07:57.767Z,63.28
2023-03-17T03:13:01.690Z,65.08
2023-03-17T03:18:04.848Z,66.57
2023-03-17T03:23:09.144Z,66.33
2023-03-17T03:28:12.083Z,67.36
2023-03-17T03:33:16.135Z,67.10
2023-03-17T03:38:20.372Z,66.57
2023-03-17T03:43:24.181Z,67.41
2023-03-17T03:48:27.314Z,67.05
2023-03-17T03:53:31.669Z,66.13
2023-03-17T03:58:34.613Z,65.86
2023-03-17T04:03:38.377Z,65.69
2023-03-17T04:08:42.868Z,64.83
2023-03-17T04:13:45.839Z,66.37
2023-03-17T04:18:48.800Z,66.75
2023-03-17T04:23:53.283Z,65.21
2023-03-17T04:28:56.181Z,64.67
2023-03-17T04:33:59.095Z,65.95
2023-03-17T04:39:03.896Z,66.59
2023-03-17T04:44:07.229Z,67.00
2023-03-17T04:49:10.306Z,66.98
2023-03-17T04:54:14.527Z,67.08
2023-03-17T04:59:17.533Z,66.72
2023-03-17T05:04:31.180Z,67.62
2023-03-17T05:09:36.223Z,67.33
2023-03-17T05:14:39.315Z,68.06
2023-03-17T05:19:42.490Z,67.05
2023-03-17T05:24:47.652Z,63.88
2023-03-17T05:29:50.683Z,60.35
2023-03-17T05:34:53.687Z,60.63
2023-03-17T05:39:58.000Z,64.59
2023-03-17T05:45:00.893Z,61.99
2023-03-17T05:50:04.761Z,58.58
2023-03-17T05:55:10.190Z,58.49
2023-03-17T06:00:16.154Z,58.02
2023-03-17T06:05:19.258Z,57.65
2023-03-17T06:10:24.115Z,59.38
2023-03-17T06:15:27.677Z,60.18
2023-03-17T06:20:31.242Z,63.33
2023-03-17T06:25:37.066Z,59.72
2023-03-17T06:30:40.951Z,57.54
2023-03-17T06:35:43.978Z,59.15
2023-03-17T06:40:48.304Z,56.78
2023-03-17T06:45:51.628Z,54.66
2023-03-17T06:50:54.528Z,51.33
2023-03-17T06:55:59.015Z,48.70
2023-03-17T07:01:02.382Z,48.73
2023-03-17T07:06:05.514Z,50.56
2023-03-17T07:11:09.924Z,46.51
2023-03-17T07:16:15.197Z,46.40
2023-03-17T07:21:18.319Z,45.31
2023-03-17T07:26:22.684Z,43.31
2023-03-17T07:31:25.643Z,45.27
2023-03-17T07:36:28.599Z,46.91
2023-03-17T07:41:32.836Z,46.31
2023-03-17T07:46:35.768Z,46.46
2023-03-17T07:51:38.803Z,47.02
2023-03-17T07:56:43.448Z,46.83
2023-03-17T08:01:46.380Z,45.44
2023-03-17T08:06:49.423Z,43.61
2023-03-17T08:11:53.925Z,43.48
2023-03-17T08:16:57.530Z,42.55
2023-03-17T08:22:01.407Z,43.23
2023-03-17T08:27:05.813Z,42.62
2023-03-17T08:32:09.690Z,41.21
2023-03-17T08:37:12.634Z,41.05
2023-03-17T08:42:17.059Z,41.94
2023-03-17T08:47:19.983Z,42.54
2023-03-17T08:52:23.206Z,41.16
2023-03-17T08:57:28.149Z,39.97
2023-03-17T09:02:31.069Z,40.10
2023-03-17T09:07:34.194Z,38.08
2023-03-17T09:12:39.123Z,37.84
2023-03-17T09:17:43.366Z,37.92
2023-03-17T09:22:47.761Z,36.16
2023-03-17T09:27:52.586Z,37.03
2023-03-17T09:32:55.500Z,37.02
2023-03-17T09:37:58.900Z,36.26
2023-03-17T09:43:11.481Z,37.10
2023-03-17T09:48:51.788Z,36.45
2023-03-17T09:54:01.224Z,36.47
2023-03-17T09:59:08.676Z,36.47
2023-03-17T10:04:12.397Z,36.47
2023-03-17T10:09:26.220Z,35.66
2023-03-17T10:14:44.978Z,34.29
2023-03-17T10:19:57.138Z,34.94
2023-03-17T10:25:05.272Z,34.81
2023-03-17T10:30:16.499Z,34.30
2023-03-17T10:35:19.996Z,34.57
2023-03-17T10:40:25.243Z,34.50
2023-03-17T10:45:31.415Z,33.52
2023-03-17T10:50:36.917Z,34.04
2023-03-17T10:55:44.635Z,34.60
2023-03-17T11:00:57.817Z,33.06
2023-03-17T11:06:04.009Z,33.62
2023-03-17T11:11:10.280Z,33.89
2023-03-17T11:16:23.300Z,32.97
2023-03-17T11:21:31.119Z,34.15
2023-03-17T11:26:53.198Z,34.73
2023-03-17T11:32:21.308Z,33.56
2023-03-17T11:37:37.687Z,32.25
2023-03-17T11:42:52.121Z,34.74
2023-03-17T11:48:18.782Z,33.33
2023-03-17T11:53:41.341Z,33.56
2023-03-17T11:58:46.320Z,33.39
2023-03-17T12:03:55.654Z,33.08
2023-03-17T12:09:07.780Z,33.09
2023-03-17T12:14:25.179Z,34.14
2023-03-17T12:19:37.478Z,32.97
2023-03-17T12:24:47.038Z,32.90
2023-03-17T12:29:56.088Z,33.06
2023-03-17T12:35:05.128Z,33.74
2023-03-17T12:40:14.434Z,32.92
2023-03-17T12:45:44.751Z,31.54
2023-03-17T12:51:36.305Z,32.07
2023-03-17T12:56:46.338Z,33.64
2023-03-17T13:01:58.501Z,33.37
2023-03-17T13:07:07.475Z,33.17
2023-03-17T13:12:44.362Z,34.11
2023-03-17T13:17:47.299Z,34.20
2023-03-17T13:23:15.110Z,35.81
2023-03-17T13:28:25.742Z,35.78
2023-03-17T13:33:32.554Z,36.09
2023-03-17T13:39:30.449Z,36.37
2023-03-17T13:44:45.445Z,36.57
2023-03-17T13:49:51.605Z,37.13
2023-03-17T13:55:02.609Z,37.12
2023-03-17T14:00:24.484Z,37.32
2023-03-17T14:05:31.320Z,37.33
2023-03-17T14:10:35.795Z,38.18
2023-03-17T14:15:48.203Z,37.65
2023-03-17T14:20:54.721Z,37.32
2023-03-17T14:26:00.110Z,37.83
2023-03-17T14:31:06.814Z,38.11
2023-03-17T14:36:14.529Z,38.10
2023-03-17T14:41:19.960Z,37.61
2023-03-17T14:46:26.889Z,38.58
2023-03-17T14:51:33.618Z,39.68
2023-03-17T14:56:39.265Z,38.64
2023-03-17T15:01:47.392Z,38.67
2023-03-17T15:06:52.310Z,38.99
2023-03-17T15:11:57.388Z,39.35
2023-03-17T15:17:04.075Z,39.33
2023-03-17T15:22:23.573Z,39.77
2023-03-17T15:27:27.136Z,39.41
2023-03-17T15:32:32.340Z,40.73
2023-03-17T15:37:36.695Z,41.43
2023-03-17T15:42:40.472Z,40.74
2023-03-17T15:47:47.050Z,41.04
2023-03-17T15:52:49.952Z,41.48
2023-03-17T15:57:55.526Z,41.59
2023-03-17T16:03:02.659Z,42.63
2023-03-17T16:08:05.909Z,42.95
2023-03-17T16:13:09.544Z,42.73
2023-03-17T16:18:18.179Z,43.93
2023-03-17T16:23:24.159Z,43.57
2023-03-17T16:28:28.938Z,44.43
2023-03-17T16:33:40.116Z,44.76
2023-03-17T16:38:43.021Z,45.28
2023-03-17T16:43:51.262Z,45.53
2023-03-17T16:48:56.696Z,45.41
2023-03-17T16:53:59.672Z,46.12
2023-03-17T16:59:03.098Z,46.22
2023-03-17T17:04:11.621Z,47.23
2023-03-17T17:09:14.512Z,46.70
2023-03-17T17:14:17.423Z,47.23
2023-03-17T17:19:21.950Z,46.93
2023-03-17T17:24:24.982Z,47.56
2023-03-17T17:29:29.234Z,47.57
2023-03-17T17:34:34.473Z,47.18
2023-03-17T17:39:37.668Z,47.22
2023-03-17T17:44:40.847Z,47.37
2023-03-17T17:49:45.185Z,47.68
2023-03-17T17:54:48.172Z,47.95
2023-03-17T17:59:51.153Z,48.29
2023-03-17T18:04:55.665Z,48.58
2023-03-17T18:09:58.760Z,48.08
2023-03-17T18:15:01.986Z,48.13
2023-03-17T18:20:10.369Z,48.06
2023-03-17T18:25:15.361Z,48.16
2023-03-17T18:30:23.396Z,48.59
2023-03-17T18:35:28.857Z,48.56
2023-03-17T18:40:31.993Z,49.28
2023-03-17T18:45:35.763Z,49.04
2023-03-17T18:50:40.892Z,49.54
2023-03-17T18:55:44.592Z,49.57
2023-03-17T19:00:47.500Z,48.83
2023-03-17T19:05:51.906Z,48.45
2023-03-17T19:10:54.825Z,50.14
2023-03-17T19:15:58.211Z,48.83
2023-03-17T19:21:03.395Z,48.52
2023-03-17T19:26:07.601Z,49.69
2023-03-17T19:31:11.042Z,48.62
2023-03-17T19:36:15.479Z,48.70
2023-03-17T19:41:18.744Z,48.58
2023-03-17T19:46:21.689Z,49.04
2023-03-17T19:51:27.260Z,48.69
2023-03-17T19:56:30.720Z,50.08
2023-03-17T20:01:33.913Z,49.00
2023-03-17T20:06:38.971Z,48.66
2023-03-17T20:11:42.064Z,47.97
2023-03-17T20:16:45.030Z,47.75
2023-03-17T20:21:49.388Z,46.83
2023-03-17T20:26:54.563Z,46.41
2023-03-17T20:31:57.718Z,46.83
2023-03-17T20:37:02.820Z,46.39
2023-03-17T20:42:10.149Z,46.88
2023-03-17T20:47:14.095Z,46.39
2023-03-17T20:52:20.497Z,46.68
2023-03-17T20:57:23.467Z,46.96
2023-03-17T21:02:26.911Z,47.00
2023-03-17T21:07:31.475Z,46.50
2023-03-17T21:12:34.432Z,46.31
2023-03-17T21:17:38.086Z,46.09
2023-03-17T21:22:42.750Z,46.88
2023-03-17T21:27:46.096Z,45.32
2023-03-17T21:32:49.094Z,45.39
2023-03-17T21:37:53.513Z,45.70
2023-03-17T21:42:56.420Z,45.40
2023-03-17T21:47:59.320Z,46.49
2023-03-17T21:53:03.762Z,57.47
2023-03-17T21:58:06.658Z,45.64
2023-03-17T22:03:10.125Z,45.79
2023-03-17T22:08:14.413Z,45.39
2023-03-17T22:13:17.550Z,45.85
2023-03-17T22:18:20.442Z,45.36
2023-03-17T22:23:25.610Z,45.95
2023-03-17T22:28:29.079Z,46.83
2023-03-17T22:33:32.011Z,46.53
2023-03-17T22:38:36.274Z,47.46
2023-03-17T22:43:40.137Z,49.80
2023-03-17T22:48:43.616Z,50.38
2023-03-17T22:53:48.644Z,51.10
2023-03-17T22:58:51.619Z,54.17
2023-03-17T23:03:55.266Z,53.51
2023-03-17T23:08:59.542Z,52.43
2023-03-17T23:14:02.845Z,51.83
2023-03-17T23:19:06.133Z,50.30
2023-03-17T23:24:10.524Z,53.39
2023-03-17T23:29:13.525Z,51.01
2023-03-17T23:34:16.581Z,48.83
2023-03-17T23:39:22.197Z,49.79
2023-03-17T23:44:25.059Z,51.21
2023-03-17T23:49:27.920Z,51.50
2023-03-17T23:54:33.086Z,49.24
2023-03-17T23:59:36.067Z,50.27
